Latest Weather Observations for Jandakot

IDW60801

Issued at 7:32 am WST Friday 27 March 2015 (issued every 30 minutes, with the page automatically refreshed every 10 minutes)

About weather observations | Map of weather stations | Latest weather observations for WA | Other Formats
Station Details ID: 009172 Name: JANDAKOT AERO Lat: -32.10 Lon: 115.88 Height: 30.0 m
Data from the previous 72 hours. | See also: Recent months at Jandakot
Date/Time
WST
Temp
°C
App
Temp
°C
Dew
Point
Rel
Hum
%
Delta-T
°C
Wind Press
QNH
hPa
Press
MSL
hPa
Rain
since 9 am
mm
Dir
 
Spd
km/h
Gust
km/h
Spd
kts
Gust
kts
27/07:30am 18.2 17.9 14.4 78 2.2 ESE 9 13 5 7 1021.0 1020.9 2.6
27/07:00am 16.0 15.3 13.3 84 1.5 ESE 9 11 5 6 1020.8 1020.7 2.6
27/06:30am 15.8 14.9 12.7 82 1.7 E 9 11 5 6 1020.8 1020.7 2.6
27/06:00am 15.3 14.6 13.1 87 1.2 ESE 9 11 5 6 1020.8 1020.7 2.6
27/05:30am 15.1 14.1 13.3 89 1.0 SE 11 17 6 9 1020.5 1020.4 2.6
27/05:00am 14.8 14.1 13.2 90 0.9 SE 9 11 5 6 1020.2 1020.1 2.6
27/04:30am 15.8 15.3 13.7 87 1.2 SE 9 11 5 6 1020.1 1020.0 2.6
27/04:00am 15.4 14.8 13.6 89 1.0 ESE 9 11 5 6 1020.0 1019.9 2.6
27/03:30am 16.7 16.6 13.9 83 1.6 E 7 9 4 5 1020.3 1020.2 2.6
27/03:00am 17.3 16.8 13.8 80 2.0 ESE 9 17 5 9 1020.5 1020.4 2.6
27/02:30am 17.6 16.0 13.9 79 2.1 SE 15 20 8 11 1020.5 1020.4 2.6
27/02:00am 17.8 16.2 13.9 78 2.2 SE 15 19 8 10 1020.8 1020.7 2.6
27/01:30am 18.3 16.9 13.5 73 2.7 ESE 13 20 7 11 1021.4 1021.3 2.6
27/01:00am 17.4 18.0 15.9 91 0.9 ENE 7 9 4 5 1021.9 1021.8 2.6
27/12:30am 17.9 18.8 16.0 89 1.1 E 6 7 3 4 1021.9 1021.8 2.6
27/12:00am 18.1 19.9 15.5 85 1.5 CALM 0 7 0 4 1021.8 1021.7 2.6
 
Date/Time
WST
Temp
°C
App
Temp
°C
Dew
Point
Rel
Hum
%
Delta-T
°C
Wind Press
QNH
hPa
Press
MSL
hPa
Rain
since 9 am
mm
Dir
 
Spd
km/h
Gust
km/h
Spd
kts
Gust
kts
26/11:30pm 18.3 19.1 15.8 85 1.5 S 6 9 3 5 1021.8 1021.7 2.6
26/11:00pm 18.4 17.8 15.7 84 1.6 S 13 15 7 8 1021.9 1021.8 2.6
26/10:30pm 18.5 18.2 16.5 88 1.2 ESE 13 17 7 9 1022.3 1022.2 2.6
26/10:00pm 18.8 18.5 17.3 91 0.9 E 15 20 8 11 1022.8 1022.7 2.6
26/09:30pm 19.4 21.6 17.4 88 1.2 NE 2 11 1 6 1022.8 1022.7 2.6
26/09:00pm 19.9 19.8 16.0 78 2.3 NW 11 13 6 7 1023.1 1023.0 2.2
26/08:30pm 21.0 21.8 15.8 72 3.1 W 6 11 3 6 1022.5 1022.4 1.0
26/08:00pm 21.2 21.9 17.1 77 2.5 WNW 9 11 5 6 1022.1 1022.0 0.6
26/07:30pm 21.2 20.0 15.1 68 3.6 NNE 15 20 8 11 1021.9 1021.8 0.0
26/07:00pm 23.0 23.3 16.0 64 4.2 NW 9 11 5 6 1021.0 1020.9 0.0
26/06:30pm 23.4 23.6 14.8 58 5.1 SE 7 13 4 7 1020.6 1020.5 0.0
26/06:00pm 24.8 22.7 11.0 42 7.7 NNW 13 17 7 9 1020.4 1020.3 0.0
26/05:30pm 24.7 19.2 10.7 41 7.8 N 30 44 16 24 1020.3 1020.2 0.0
26/05:23pm 26.5 23.2 8.0 31 9.9 NE 15 44 8 24 1020.2 1020.1 0.0
26/05:00pm 28.2 23.6 3.7 21 12.3 ENE 17 24 9 13 1019.9 1019.8 0.0
26/04:30pm 28.6 24.1 4.2 21 12.4 ENE 17 24 9 13 1019.6 1019.5 0.0
26/04:00pm 29.0 24.6 4.6 21 12.5 ENE 17 24 9 13 1019.6 1019.5 0.0
26/03:30pm 29.2 24.7 4.4 20 12.7 ENE 17 26 9 14 1019.6 1019.5 0.0
26/03:00pm 29.6 24.3 5.2 21 12.7 E 22 32 12 17 1019.4 1019.3 0.0
26/02:30pm 30.4 25.0 4.7 19 13.3 ENE 22 35 12 19 1019.9 1019.8 0.0
26/02:00pm 29.9 25.0 5.1 20 12.9 NE 20 30 11 16 1020.3 1020.2 0.0
26/01:30pm 29.9 25.0 5.1 20 12.9 ENE 20 33 11 18 1020.7 1020.6 0.0
26/01:00pm 29.6 25.6 6.7 23 12.2 ENE 17 28 9 15 1021.3 1021.2 0.0
26/12:30pm 28.8 23.4 6.5 24 11.8 ENE 24 33 13 18 1021.7 1021.6 0.0
26/12:00pm 28.5 23.2 6.8 25 11.5 ENE 24 32 13 17 1022.2 1022.1 0.0
26/11:30am 27.5 22.2 6.8 27 11.0 NE 24 33 13 18 1022.8 1022.7 0.0
26/11:00am 26.4 20.8 7.0 29 10.2 ENE 26 37 14 20 1023.0 1022.9 0.0
26/10:30am 25.1 18.6 6.6 30 9.6 NE 30 39 16 21 1023.4 1023.3 0.0
26/10:00am 24.7 19.2 7.6 33 9.0 NE 26 35 14 19 1023.9 1023.8 0.0
26/09:30am 22.8 16.6 7.9 38 7.8 NE 30 41 16 22 1024.1 1024.0 0.0
26/09:00am 21.4 15.6 7.9 41 7.0 ENE 28 43 15 23 1024.1 1024.0 0.0
26/08:30am 20.3 15.0 8.6 47 6.1 NE 26 35 14 19 1024.3 1024.2 0.0
26/08:00am 19.2 15.4 9.1 52 5.3 NE 19 28 10 15 1024.2 1024.1 0.0
26/07:30am 17.9 14.0 9.3 57 4.5 ENE 20 30 11 16 1023.9 1023.8 0.0
26/07:00am 17.0 12.3 9.3 60 4.0 ENE 24 39 13 21 1023.8 1023.7 0.0
26/06:30am 16.3 11.7 9.6 64 3.5 ENE 24 33 13 18 1023.8 1023.7 0.0
26/06:00am 16.1 11.9 9.8 66 3.3 ENE 22 32 12 17 1023.6 1023.5 0.0
26/05:30am 16.0 12.3 10.1 68 3.1 E 20 33 11 18 1023.4 1023.3 0.0
26/05:00am 16.1 12.0 10.2 68 3.1 E 22 32 12 17 1023.4 1023.3 0.0
26/04:30am 16.5 12.4 10.2 66 3.3 E 22 33 12 18 1023.2 1023.1 0.0
26/04:00am 16.4 12.7 10.3 67 3.2 E 20 33 11 18 1023.3 1023.2 0.0
26/03:30am 16.7 12.7 10.5 67 3.3 E 22 33 12 18 1023.2 1023.1 0.0
26/03:00am 16.6 12.3 10.8 68 3.1 E 24 32 13 17 1023.2 1023.1 0.0
26/02:30am 17.0 12.0 10.8 67 3.3 E 28 39 15 21 1023.2 1023.1 0.0
26/02:00am 17.1 13.2 10.9 67 3.3 E 22 43 12 23 1023.6 1023.5 0.0
26/01:30am 17.5 13.3 11.0 65 3.5 E 24 32 13 17 1023.6 1023.5 0.0
26/01:00am 17.8 13.6 11.1 65 3.6 E 24 39 13 21 1023.7 1023.6 0.0
26/12:30am 18.4 14.9 11.0 62 4.0 ESE 20 33 11 18 1024.0 1023.9 0.0
26/12:00am 19.0 13.1 11.1 60 4.3 E 33 50 18 27 1023.7 1023.6 0.0
 
Date/Time
WST
Temp
°C
App
Temp
°C
Dew
Point
Rel
Hum
%
Delta-T
°C
Wind Press
QNH
hPa
Press
MSL
hPa
Rain
since 9 am
mm
Dir
 
Spd
km/h
Gust
km/h
Spd
kts
Gust
kts
25/11:30pm 19.7 13.4 10.9 57 4.8 ESE 35 48 19 26 1023.4 1023.3 0.0
25/11:00pm 20.3 16.0 10.7 54 5.2 ESE 24 41 13 22 1023.4 1023.3 0.0
25/10:30pm 20.6 16.2 9.0 47 6.1 ESE 22 35 12 19 1023.4 1023.3 0.0
25/10:00pm 21.6 16.3 4.9 33 8.2 ESE 22 32 12 17 1023.2 1023.1 0.0
25/09:30pm 20.3 16.7 5.2 37 7.4 SE 13 20 7 11 1023.1 1023.0 0.0
25/09:00pm 20.3 16.4 5.4 37 7.3 SE 15 20 8 11 1023.1 1023.0 0.0
25/08:30pm 20.5 17.0 5.5 37 7.4 SE 13 17 7 9 1023.0 1022.9 0.0
25/08:00pm 21.1 17.6 5.3 35 7.8 SE 13 17 7 9 1022.8 1022.7 0.0
25/07:30pm 22.4 18.3 4.4 31 8.8 SE 15 19 8 10 1022.5 1022.4 0.0
25/07:00pm 23.1 18.9 4.0 28 9.3 SE 15 19 8 10 1022.4 1022.3 0.0
25/06:30pm 24.7 19.6 3.0 24 10.5 ESE 19 24 10 13 1022.2 1022.1 0.0
25/06:00pm 25.8 20.4 2.7 22 11.2 ESE 20 26 11 14 1022.1 1022.0 0.0
25/05:30pm 26.8 20.9 1.5 19 12.1 E 22 33 12 18 1022.0 1021.9 0.0
25/05:00pm 27.4 21.2 2.0 19 12.3 ESE 24 35 13 19 1021.9 1021.8 0.0
25/04:30pm 27.6 21.7 1.7 18 12.5 E 22 30 12 16 1021.9 1021.8 0.0
25/04:00pm 27.7 22.5 2.3 19 12.4 ESE 19 32 10 17 1021.9 1021.8 0.0
25/03:30pm 27.7 22.0 3.0 20 12.2 ESE 22 32 12 17 1022.1 1022.0 0.0
25/03:00pm 28.4 23.3 3.0 19 12.6 ESE 19 28 10 15 1022.4 1022.3 0.0
25/02:30pm 27.1 21.5 3.2 21 11.8 E 22 33 12 18 1022.5 1022.4 0.0
25/02:00pm 26.9 21.7 3.8 22 11.5 E 20 33 11 18 1022.8 1022.7 0.0
25/01:30pm 27.7 22.9 4.7 23 11.8 E 19 30 10 16 1023.1 1023.0 0.0
25/01:00pm 26.9 22.1 4.5 23 11.3 ENE 19 32 10 17 1023.6 1023.5 0.0
25/12:30pm 25.9 20.6 5.2 26 10.6 ESE 22 35 12 19 1023.9 1023.8 0.0
25/12:00pm 26.1 21.0 5.9 27 10.4 ENE 22 32 12 17 1024.2 1024.1 0.0
25/11:30am 24.4 19.2 5.7 30 9.5 E 22 32 12 17 1024.5 1024.4 0.0
25/11:00am 24.1 18.9 5.7 30 9.3 ENE 22 30 12 16 1025.0 1024.9 0.0
25/10:30am 22.9 18.2 6.1 33 8.5 ENE 20 28 11 15 1025.3 1025.2 0.0
25/10:00am 21.7 16.6 6.2 36 7.8 E 22 33 12 18 1025.5 1025.4 0.0
25/09:30am 20.6 15.7 6.7 40 7.0 E 22 35 12 19 1025.6 1025.5 0.0
25/09:00am 19.0 15.2 7.6 47 5.8 E 17 24 9 13 1025.7 1025.6 0.0
25/08:30am 17.5 13.1 7.5 52 5.0 E 20 30 11 16 1025.7 1025.6 0.0
25/08:00am 15.9 11.8 7.9 59 4.0 E 19 28 10 15 1025.8 1025.7 0.0
25/07:30am 15.6 10.2 8.0 60 3.8 E 26 39 14 21 1025.6 1025.5 0.0
25/07:00am 14.8 11.1 8.0 64 3.4 ESE 17 26 9 14 1025.4 1025.3 0.0
25/06:30am 14.6 10.5 7.9 64 3.3 ESE 19 26 10 14 1025.2 1025.1 0.0
25/06:00am 14.9 10.2 7.6 61 3.6 ESE 22 32 12 17 1024.8 1024.7 0.0
25/05:30am 15.0 9.9 7.7 61 3.6 ESE 24 35 13 19 1024.3 1024.2 0.0
25/05:00am 15.3 10.1 7.4 59 3.9 ESE 24 37 13 20 1024.1 1024.0 0.0
25/04:30am 15.5 10.3 7.2 57 4.1 ESE 24 37 13 20 1023.8 1023.7 0.0
25/04:00am 15.7 10.1 7.2 57 4.2 ESE 26 39 14 21 1023.5 1023.4 0.0
25/03:30am 15.8 11.4 7.3 57 4.2 ESE 20 32 11 17 1023.4 1023.3 0.0
25/03:00am 16.2 11.3 7.1 55 4.5 ESE 22 30 12 16 1023.2 1023.1 0.0
25/02:30am 16.5 10.9 7.0 53 4.7 ESE 26 35 14 19 1023.3 1023.2 0.0
25/02:00am 16.9 11.6 6.7 51 5.0 ESE 24 39 13 21 1023.3 1023.2 0.0
25/01:30am 17.0 12.0 6.6 50 5.1 ESE 22 32 12 17 1023.2 1023.1 0.0
25/01:00am 17.6 12.1 6.1 47 5.6 ESE 24 35 13 19 1023.1 1023.0 0.0
25/12:30am 17.9 12.3 5.2 43 6.1 ESE 24 39 13 21 1023.2 1023.1 0.0
25/12:00am 17.6 13.2 4.8 42 6.1 SE 17 24 9 13 1023.1 1023.0 0.0
 
Date/Time
WST
Temp
°C
App
Temp
°C
Dew
Point
Rel
Hum
%
Delta-T
°C
Wind Press
QNH
hPa
Press
MSL
hPa
Rain
since 9 am
mm
Dir
 
Spd
km/h
Gust
km/h
Spd
kts
Gust
kts
24/11:30pm 17.8 13.3 4.2 40 6.4 SSE 17 20 9 11 1023.1 1023.0 0.0
24/11:00pm 16.7 12.4 5.1 46 5.5 S 17 20 9 11 1022.8 1022.7 0.0
24/10:30pm 16.2 13.1 7.3 55 4.4 S 13 15 7 8 1022.8 1022.7 0.0
24/10:00pm 16.2 13.7 8.3 59 4.0 S 11 15 6 8 1022.9 1022.8 0.0
24/09:30pm 16.8 14.5 9.0 60 4.0 SSE 11 13 6 7 1022.7 1022.6 0.0
24/09:00pm 17.6 15.3 8.9 56 4.5 S 11 15 6 8 1022.4 1022.3 0.0
24/08:30pm 18.2 15.6 9.2 55 4.7 S 13 17 7 9 1022.2 1022.1 0.0
24/08:00pm 18.6 16.4 9.2 54 4.9 S 11 17 6 9 1022.1 1022.0 0.0
24/07:30pm 19.3 16.6 9.0 51 5.4 S 13 19 7 10 1021.9 1021.8 0.0
24/07:00pm 20.1 16.6 8.6 47 6.0 SSW 17 24 9 13 1021.7 1021.6 0.0
24/06:30pm 20.6 16.8 9.0 47 6.1 SSW 19 24 10 13 1021.5 1021.4 0.0
24/06:00pm 21.5 16.3 8.8 44 6.7 SSW 26 35 14 19 1021.3 1021.2 0.0
24/05:30pm 22.3 16.6 8.5 41 7.3 SSW 28 35 15 19 1021.0 1020.9 0.0
24/05:00pm 23.2 17.8 8.2 38 7.9 SW 26 37 14 20 1020.7 1020.6 0.0
24/04:30pm 23.8 18.0 8.1 36 8.3 SW 28 39 15 21 1020.4 1020.3 0.0
24/04:00pm 24.2 18.7 7.7 34 8.7 SW 26 37 14 20 1020.4 1020.3 0.0
24/03:30pm 25.0 19.5 7.6 33 9.2 SW 26 35 14 19 1020.3 1020.2 0.0
24/03:00pm 25.0 19.1 7.3 32 9.3 SW 28 39 15 21 1020.3 1020.2 0.0
24/02:30pm 25.5 20.0 5.8 28 10.1 SW 24 35 13 19 1020.4 1020.3 0.0
24/02:00pm 25.2 19.5 5.0 27 10.2 SSW 24 39 13 21 1020.6 1020.5 0.0
24/01:30pm 25.6 21.3 6.8 30 9.8 SSW 19 26 10 14 1021.0 1020.9 0.0
24/01:00pm 25.6 21.2 2.7 22 11.1 S 15 26 8 14 1021.2 1021.1 0.0
24/12:30pm 25.1 20.3 2.8 23 10.8 S 17 30 9 16 1021.6 1021.5 0.0
24/12:00pm 25.1 20.3 2.4 23 10.9 S 17 26 9 14 1021.8 1021.7 0.0
24/11:30am 23.9 19.6 3.5 26 9.9 S 15 22 8 12 1022.4 1022.3 0.0
24/11:00am 23.0 20.2 5.1 31 8.9 ESE 9 17 5 9 1022.7 1022.6 0.0
24/10:30am 22.0 19.3 5.8 35 8.1 E 9 20 5 11 1023.1 1023.0 0.0
24/10:00am 20.8 17.8 5.9 37 7.4 ESE 11 17 6 9 1023.5 1023.4 0.0
24/09:30am 19.6 16.7 6.6 42 6.5 E 11 15 6 8 1023.8 1023.7 0.0
24/09:00am 17.9 14.6 6.3 46 5.7 ESE 13 17 7 9 1023.9 1023.8 0.0
24/08:30am 16.5 12.3 5.9 49 5.1 ESE 17 20 9 11 1023.9 1023.8 0.0
24/08:00am 15.5 10.3 5.6 51 4.7 ESE 22 28 12 15 1024.0 1023.9 0.0

Other Formats:

Comma delimited format used in spreadsheet applications
http://www.bom.gov.au/fwo/IDW60801/IDW60801.94609.axf

JavaScript Object Notation format (JSON) in row-major order
http://www.bom.gov.au/fwo/IDW60801/IDW60801.94609.json